sensor_id;sensor_type;location;lat;lon;timestamp;pressure;altitude;pressure_sealevel;temperature;humidity
26839;BME280;40088;51.214;6.786;2023-12-28T00:05:23;100829.84;;;15.07;57.44
26839;BME280;40088;51.214;6.786;2023-12-28T00:15:23;100840.16;;;15.05;57.45
26839;BME280;40088;51.214;6.786;2023-12-28T00:25:23;100826.44;;;15.05;57.41
26839;BME280;40088;51.214;6.786;2023-12-28T00:35:23;100824.53;;;15.06;57.42
26839;BME280;40088;51.214;6.786;2023-12-28T00:45:24;100860.22;;;15.06;57.65
26839;BME280;40088;51.214;6.786;2023-12-28T00:55:24;100858.31;;;15.06;57.83
26839;BME280;40088;51.214;6.786;2023-12-28T01:05:25;100856.44;;;15.07;57.56
26839;BME280;40088;51.214;6.786;2023-12-28T01:15:28;100872.91;;;15.07;57.61
26839;BME280;40088;51.214;6.786;2023-12-28T01:25:29;100872.91;;;15.07;58.13
26839;BME280;40088;51.214;6.786;2023-12-28T01:35:29;100901.19;;;15.07;57.74
26839;BME280;40088;51.214;6.786;2023-12-28T01:45:29;100911.13;;;15.08;57.97
26839;BME280;40088;51.214;6.786;2023-12-28T01:55:30;100924.00;;;15.08;58.09
26839;BME280;40088;51.214;6.786;2023-12-28T02:05:31;100920.22;;;15.09;58.10
26839;BME280;40088;51.214;6.786;2023-12-28T02:15:31;100925.69;;;15.09;58.11
26839;BME280;40088;51.214;6.786;2023-12-28T02:25:31;100922.97;;;15.09;58.39
26839;BME280;40088;51.214;6.786;2023-12-28T02:35:33;100924.84;;;15.08;58.46
26839;BME280;40088;51.214;6.786;2023-12-28T02:45:37;100930.19;;;15.10;58.17
26839;BME280;40088;51.214;6.786;2023-12-28T02:55:38;100923.84;;;15.09;58.39
26839;BME280;40088;51.214;6.786;2023-12-28T03:05:38;100919.22;;;15.10;58.53
26839;BME280;40088;51.214;6.786;2023-12-28T03:15:38;100920.22;;;15.09;58.39
26839;BME280;40088;51.214;6.786;2023-12-28T03:25:38;100921.09;;;15.09;58.72
26839;BME280;40088;51.214;6.786;2023-12-28T03:35:39;100921.09;;;15.09;58.43
26839;BME280;40088;51.214;6.786;2023-12-28T03:45:39;100918.34;;;15.09;58.69
26839;BME280;40088;51.214;6.786;2023-12-28T03:55:39;100904.44;;;15.11;58.57
26839;BME280;40088;51.214;6.786;2023-12-28T04:05:40;100914.56;;;15.10;58.74
26839;BME280;40088;51.214;6.786;2023-12-28T04:15:42;100900.84;;;15.10;58.74
26839;BME280;40088;51.214;6.786;2023-12-28T04:25:43;100910.78;;;15.11;58.77
26839;BME280;40088;51.214;6.786;2023-12-28T04:35:43;100907.19;;;15.11;58.78
26839;BME280;40088;51.214;6.786;2023-12-28T04:45:43;100910.97;;;15.10;58.85
26839;BME280;40088;51.214;6.786;2023-12-28T04:55:43;100938.22;;;15.11;58.53
26839;BME280;40088;51.214;6.786;2023-12-28T05:05:44;100916.28;;;15.11;58.81
26839;BME280;40088;51.214;6.786;2023-12-28T05:15:44;100927.25;;;15.11;58.75
26839;BME280;40088;51.214;6.786;2023-12-28T05:25:44;100935.47;;;15.11;58.94
26839;BME280;40088;51.214;6.786;2023-12-28T05:35:46;100957.44;;;15.11;59.01
26839;BME280;40088;51.214;6.786;2023-12-28T05:45:46;100954.69;;;15.11;58.95
26839;BME280;40088;51.214;6.786;2023-12-28T05:55:46;100967.56;;;15.11;59.04
26839;BME280;40088;51.214;6.786;2023-12-28T06:05:47;100981.09;;;15.13;58.95
26839;BME280;40088;51.214;6.786;2023-12-28T06:15:47;100988.28;;;15.14;58.82
26839;BME280;40088;51.214;6.786;2023-12-28T06:25:47;100984.88;;;15.11;58.94
26839;BME280;40088;51.214;6.786;2023-12-28T06:35:48;100999.47;;;15.12;58.75
26839;BME280;40088;51.214;6.786;2023-12-28T06:45:48;100990.38;;;15.11;58.84
26839;BME280;40088;51.214;6.786;2023-12-28T06:55:48;100980.25;;;15.12;58.83
26839;BME280;40088;51.214;6.786;2023-12-28T07:05:49;100976.47;;;15.13;58.94
26839;BME280;40088;51.214;6.786;2023-12-28T07:15:49;100983.00;;;15.12;59.08
26839;BME280;40088;51.214;6.786;2023-12-28T07:25:50;101014.03;;;15.13;58.75
26839;BME280;40088;51.214;6.786;2023-12-28T07:35:50;101013.00;;;15.14;58.83
26839;BME280;40088;51.214;6.786;2023-12-28T07:45:51;101029.47;;;15.14;58.71
26839;BME280;40088;51.214;6.786;2023-12-28T07:55:51;101039.59;;;15.13;58.98
26839;BME280;40088;51.214;6.786;2023-12-28T08:05:51;101042.34;;;15.13;58.94
26839;BME280;40088;51.214;6.786;2023-12-28T08:15:51;101046.13;;;15.12;58.91
26839;BME280;40088;51.214;6.786;2023-12-28T08:25:52;101041.50;;;15.13;59.00
26839;BME280;40088;51.214;6.786;2023-12-28T08:35:52;101043.19;;;15.14;58.87
26839;BME280;40088;51.214;6.786;2023-12-28T08:45:53;101058.66;;;15.15;58.88
26839;BME280;40088;51.214;6.786;2023-12-28T08:55:54;101066.88;;;15.15;58.79
26839;BME280;40088;51.214;6.786;2023-12-28T09:05:58;101072.38;;;15.15;58.71
26839;BME280;40088;51.214;6.786;2023-12-28T09:15:58;101065.16;;;15.14;58.69
26839;BME280;40088;51.214;6.786;2023-12-28T09:26:00;101075.13;;;15.15;58.81
26839;BME280;40088;51.214;6.786;2023-12-28T09:36:03;101085.22;;;15.14;58.89
26839;BME280;40088;51.214;6.786;2023-12-28T09:46:07;101087.09;;;15.14;58.84
26839;BME280;40088;51.214;6.786;2023-12-28T09:56:07;101061.41;;;15.15;58.88
26839;BME280;40088;51.214;6.786;2023-12-28T10:06:08;101076.84;;;15.16;58.77
26839;BME280;40088;51.214;6.786;2023-12-28T10:16:09;101074.09;;;15.16;58.75
26839;BME280;40088;51.214;6.786;2023-12-28T10:26:10;101069.63;;;15.15;58.75
26839;BME280;40088;51.214;6.786;2023-12-28T10:36:11;101077.69;;;15.16;58.74
26839;BME280;40088;51.214;6.786;2023-12-28T10:46:26;101079.56;;;15.16;58.79
26839;BME280;40088;51.214;6.786;2023-12-28T10:56:41;101061.22;;;15.16;58.73
26839;BME280;40088;51.214;6.786;2023-12-28T11:06:45;101060.34;;;15.16;58.86
26839;BME280;40088;51.214;6.786;2023-12-28T11:16:46;101046.63;;;15.16;58.75
26839;BME280;40088;51.214;6.786;2023-12-28T11:26:54;101052.97;;;15.16;58.85
26839;BME280;40088;51.214;6.786;2023-12-28T11:36:56;101031.88;;;15.17;58.67
26839;BME280;40088;51.214;6.786;2023-12-28T11:46:57;101039.06;;;15.18;58.70
26839;BME280;40088;51.214;6.786;2023-12-28T11:56:58;101020.88;;;15.17;58.65
26839;BME280;40088;51.214;6.786;2023-12-28T12:07:01;101029.13;;;15.17;58.67
26839;BME280;40088;51.214;6.786;2023-12-28T12:17:02;101020.03;;;15.16;58.77
26839;BME280;40088;51.214;6.786;2023-12-28T12:27:03;101012.66;;;15.17;58.70
26839;BME280;40088;51.214;6.786;2023-12-28T12:37:03;100996.19;;;15.17;58.63
26839;BME280;40088;51.214;6.786;2023-12-28T12:47:04;100988.81;;;15.17;58.41
26839;BME280;40088;51.214;6.786;2023-12-28T12:57:05;100972.34;;;15.17;58.38
26839;BME280;40088;51.214;6.786;2023-12-28T13:07:05;100989.66;;;15.18;58.55
26839;BME280;40088;51.214;6.786;2023-12-28T13:17:05;100984.16;;;15.18;58.47
26839;BME280;40088;51.214;6.786;2023-12-28T13:27:06;100970.44;;;15.18;58.49
26839;BME280;40088;51.214;6.786;2023-12-28T13:37:06;100964.94;;;15.18;58.57
26839;BME280;40088;51.214;6.786;2023-12-28T13:47:06;100962.22;;;15.18;58.55
26839;BME280;40088;51.214;6.786;2023-12-28T13:57:07;100964.09;;;15.17;58.48
26839;BME280;40088;51.214;6.786;2023-12-28T14:07:07;100932.00;;;15.18;58.17
26839;BME280;40088;51.214;6.786;2023-12-28T14:17:07;100934.75;;;15.18;58.53
26839;BME280;40088;51.214;6.786;2023-12-28T14:27:08;100946.59;;;15.18;58.08
26839;BME280;40088;51.214;6.786;2023-12-28T14:37:11;100955.69;;;15.19;58.53
26839;BME280;40088;51.214;6.786;2023-12-28T14:47:12;100946.78;;;15.17;58.46
26839;BME280;40088;51.214;6.786;2023-12-28T14:57:12;100941.09;;;15.18;58.21
26839;BME280;40088;51.214;6.786;2023-12-28T15:07:12;100937.50;;;15.18;58.12
26839;BME280;40088;51.214;6.786;2023-12-28T15:17:14;100933.91;;;15.17;58.44
26839;BME280;40088;51.214;6.786;2023-12-28T15:27:14;100935.59;;;15.18;58.20
26839;BME280;40088;51.214;6.786;2023-12-28T15:37:14;100919.13;;;15.18;58.29
26839;BME280;40088;51.214;6.786;2023-12-28T15:47:15;100917.44;;;15.17;58.28
26839;BME280;40088;51.214;6.786;2023-12-28T15:57:15;100932.00;;;15.18;58.15
26839;BME280;40088;51.214;6.786;2023-12-28T16:07:16;100923.78;;;15.18;57.96
26839;BME280;40088;51.214;6.786;2023-12-28T16:17:16;100918.28;;;15.18;58.08
26839;BME280;40088;51.214;6.786;2023-12-28T16:27:16;100909.00;;;15.19;58.14
26839;BME280;40088;51.214;6.786;2023-12-28T16:37:17;100903.53;;;15.19;58.05
26839;BME280;40088;51.214;6.786;2023-12-28T16:47:18;100904.38;;;15.19;57.89
26839;BME280;40088;51.214;6.786;2023-12-28T16:57:18;100888.09;;;15.18;57.83
26839;BME280;40088;51.214;6.786;2023-12-28T17:07:18;100912.59;;;15.19;57.97
26839;BME280;40088;51.214;6.786;2023-12-28T17:17:19;100904.38;;;15.19;57.99
26839;BME280;40088;51.214;6.786;2023-12-28T17:27:27;100898.88;;;15.19;57.94
26839;BME280;40088;51.214;6.786;2023-12-28T17:37:28;100889.78;;;15.19;58.05
26839;BME280;40088;51.214;6.786;2023-12-28T17:47:59;100903.53;;;15.19;57.94
26839;BME280;40088;51.214;6.786;2023-12-28T17:58:00;100907.31;;;15.18;57.98
26839;BME280;40088;51.214;6.786;2023-12-28T18:08:00;100908.00;;;15.20;57.95
26839;BME280;40088;51.214;6.786;2023-12-28T18:18:00;100901.81;;;15.18;57.90
26839;BME280;40088;51.214;6.786;2023-12-28T18:28:01;100905.41;;;15.18;57.80
26839;BME280;40088;51.214;6.786;2023-12-28T18:38:01;100914.50;;;15.19;57.89
26839;BME280;40088;51.214;6.786;2023-12-28T18:48:03;100923.59;;;15.19;57.90
26839;BME280;40088;51.214;6.786;2023-12-28T18:58:07;100914.50;;;15.19;57.65
26839;BME280;40088;51.214;6.786;2023-12-28T19:08:08;100918.09;;;15.19;57.79
26839;BME280;40088;51.214;6.786;2023-12-28T19:18:08;100911.59;;;15.20;57.74
26839;BME280;40088;51.214;6.786;2023-12-28T19:28:09;100908.16;;;15.18;57.88
26839;BME280;40088;51.214;6.786;2023-12-28T19:38:09;100905.25;;;15.20;57.95
26839;BME280;40088;51.214;6.786;2023-12-28T19:48:09;100881.56;;;15.19;57.51
26839;BME280;40088;51.214;6.786;2023-12-28T19:58:10;100897.03;;;15.20;57.68
26839;BME280;40088;51.214;6.786;2023-12-28T20:08:10;100894.28;;;15.20;57.70
26839;BME280;40088;51.214;6.786;2023-12-28T20:18:11;100878.81;;;15.19;57.58
26839;BME280;40088;51.214;6.786;2023-12-28T20:28:11;100872.47;;;15.18;57.53
26839;BME280;40088;51.214;6.786;2023-12-28T20:38:11;100875.06;;;15.20;58.00
26839;BME280;40088;51.214;6.786;2023-12-28T20:48:12;100866.81;;;15.20;57.52
26839;BME280;40088;51.214;6.786;2023-12-28T20:58:12;100848.47;;;15.20;57.60
26839;BME280;40088;51.214;6.786;2023-12-28T21:08:12;100844.88;;;15.20;57.78
26839;BME280;40088;51.214;6.786;2023-12-28T21:18:13;100842.78;;;15.22;57.62
26839;BME280;40088;51.214;6.786;2023-12-28T21:28:13;100824.59;;;15.21;57.82
26839;BME280;40088;51.214;6.786;2023-12-28T21:38:14;100822.91;;;15.20;57.58
26839;BME280;40088;51.214;6.786;2023-12-28T21:48:14;100824.59;;;15.21;57.78
26839;BME280;40088;51.214;6.786;2023-12-28T21:58:14;100821.66;;;15.22;57.48
26839;BME280;40088;51.214;6.786;2023-12-28T22:08:15;100815.34;;;15.22;57.79
26839;BME280;40088;51.214;6.786;2023-12-28T22:18:15;100820.81;;;15.22;57.62
26839;BME280;40088;51.214;6.786;2023-12-28T22:28:15;100827.34;;;15.21;57.78
26839;BME280;40088;51.214;6.786;2023-12-28T22:38:15;100809.84;;;15.22;57.85
26839;BME280;40088;51.214;6.786;2023-12-28T22:48:16;100810.69;;;15.22;57.69
26839;BME280;40088;51.214;6.786;2023-12-28T22:58:18;100792.53;;;15.21;57.70
26839;BME280;40088;51.214;6.786;2023-12-28T23:08:18;100782.38;;;15.22;57.79
26839;BME280;40088;51.214;6.786;2023-12-28T23:18:18;100779.66;;;15.22;57.54
26839;BME280;40088;51.214;6.786;2023-12-28T23:28:19;100766.78;;;15.22;57.77
26839;BME280;40088;51.214;6.786;2023-12-28T23:38:19;100768.66;;;15.22;57.78
26839;BME280;40088;51.214;6.786;2023-12-28T23:48:19;100776.91;;;15.22;57.67
26839;BME280;40088;51.214;6.786;2023-12-28T23:58:20;100754.94;;;15.22;57.56
